Time;durP1;ratioP1;P1;durP2;ratioP2;P2;SDS_P1;SDS_P2;PMS_P1;PMS_P2;Temp;Humidity;BMP_temperature;BMP_pressure;BME280_temperature;BME280_humidity;BME280_pressure;Samples;Min_cycle;Max_cycle;Signal;HPM_P1;HPM_P2
2022/09/02 00:00:59;;;;;;;0.00;0.00;;;13.80;99.90;;;;;;5060557;28;20450;-70
2022/09/02 00:03:28;;;;;;;0.00;0.00;;;13.80;99.90;;;;;;5060140;28;20706;-70
2022/09/02 00:05:57;;;;;;;0.00;0.00;;;13.80;99.90;;;;;;5060151;28;20479;-71
2022/09/02 00:08:25;;;;;;;0.00;0.00;;;13.80;99.90;;;;;;5059912;28;20489;-70
2022/09/02 00:10:53;;;;;;;0.00;0.00;;;13.80;99.90;;;;;;5059720;28;20613;-71
2022/09/02 00:13:22;;;;;;;0.00;0.00;;;13.80;99.90;;;;;;5063106;28;20538;-70
2022/09/02 00:15:50;;;;;;;0.00;0.00;;;13.70;99.90;;;;;;5061033;28;20470;-71
2022/09/02 00:18:19;;;;;;;0.00;0.00;;;13.80;99.90;;;;;;5061094;28;20443;-73
2022/09/02 00:20:48;;;;;;;0.00;0.00;;;13.70;99.90;;;;;;5060369;28;20447;-70
2022/09/02 00:23:16;;;;;;;0.00;0.00;;;13.70;99.90;;;;;;5060924;28;20538;-72
2022/09/02 00:25:45;;;;;;;0.00;0.00;;;13.70;99.90;;;;;;5061000;28;20432;-71
2022/09/02 00:28:15;;;;;;;0.00;0.00;;;13.70;99.90;;;;;;5060731;28;20786;-71
2022/09/02 00:30:45;;;;;;;0.00;0.00;;;13.70;99.90;;;;;;5060604;28;20985;-71
2022/09/02 00:33:14;;;;;;;0.00;0.00;;;13.70;99.90;;;;;;5060213;28;20450;-72
2022/09/02 00:35:43;;;;;;;0.00;0.00;;;13.60;99.90;;;;;;5059629;28;20450;-70
2022/09/02 00:38:11;;;;;;;0.00;0.00;;;13.60;99.90;;;;;;5059987;28;20581;-71
2022/09/02 00:40:44;;;;;;;0.00;0.00;;;13.50;99.90;;;;;;5059682;28;20530;-71
2022/09/02 00:43:12;;;;;;;0.00;0.00;;;13.50;99.90;;;;;;5060042;28;20435;-70
2022/09/02 00:45:40;;;;;;;0.00;0.00;;;13.50;99.90;;;;;;5059740;28;20736;-69
2022/09/02 00:48:08;;;;;;;0.00;0.00;;;13.50;99.90;;;;;;5059365;28;20528;-71
2022/09/02 00:50:36;;;;;;;0.00;0.00;;;13.40;99.90;;;;;;5059934;28;20448;-69
2022/09/02 00:53:08;;;;;;;0.00;0.00;;;13.40;99.90;;;;;;5060508;28;20446;-72
2022/09/02 00:55:40;;;;;;;0.00;0.00;;;13.40;99.90;;;;;;5060443;28;20824;-70
2022/09/02 00:58:13;;;;;;;0.00;0.00;;;13.40;99.90;;;;;;5059574;28;20718;-71
2022/09/02 01:00:45;;;;;;;0.00;0.00;;;13.30;99.90;;;;;;5068291;28;20443;-72
2022/09/02 01:03:17;;;;;;;0.00;0.00;;;13.30;99.90;;;;;;5078946;28;20455;-71
2022/09/02 01:05:48;;;;;;;0.00;0.00;;;13.30;99.90;;;;;;5078140;28;20755;-71
2022/09/02 01:08:21;;;;;;;0.00;0.00;;;13.20;99.90;;;;;;5070588;28;20435;-72
2022/09/02 01:10:49;;;;;;;0.00;0.00;;;13.20;99.90;;;;;;5059048;28;20998;-71
2022/09/02 01:13:19;;;;;;;0.00;0.00;;;13.20;99.90;;;;;;5058937;28;20974;-70
2022/09/02 01:15:51;;;;;;;0.00;0.00;;;13.20;99.90;;;;;;5059016;28;20522;-72
2022/09/02 01:18:23;;;;;;;0.00;0.00;;;13.20;99.90;;;;;;5058959;28;20442;-69
2022/09/02 01:20:51;;;;;;;0.00;0.00;;;13.10;99.90;;;;;;5058407;28;21014;-71
2022/09/02 01:23:21;;;;;;;0.00;0.00;;;13.20;99.90;;;;;;5059230;28;20527;-72
2022/09/02 01:25:52;;;;;;;0.00;0.00;;;13.10;99.90;;;;;;5058605;28;20432;-72
2022/09/02 01:28:20;;;;;;;0.00;0.00;;;13.10;99.90;;;;;;5058756;28;20447;-73
2022/09/02 01:30:50;;;;;;;0.00;0.00;;;13.00;99.90;;;;;;5058441;28;20435;-75
2022/09/02 01:33:20;;;;;;;0.00;0.00;;;13.10;99.90;;;;;;5060394;28;20439;-75
2022/09/02 01:35:50;;;;;;;0.00;0.00;;;13.10;99.90;;;;;;5059929;28;20873;-75
2022/09/02 01:38:20;;;;;;;0.00;0.00;;;13.10;99.90;;;;;;5058188;28;20475;-75
2022/09/02 01:40:48;;;;;;;0.00;0.00;;;13.20;99.90;;;;;;5058825;28;20685;-76
2022/09/02 01:43:19;;;;;;;0.00;0.00;;;13.20;99.90;;;;;;5059128;28;20520;-75
2022/09/02 01:45:49;;;;;;;0.00;0.00;;;13.20;99.90;;;;;;5059240;28;20447;-76
2022/09/02 01:48:18;;;;;;;0.00;0.00;;;13.20;99.90;;;;;;5058258;28;20594;-75
2022/09/02 01:50:52;;;;;;;0.00;0.00;;;13.20;99.90;;;;;;5058683;28;20796;-76
2022/09/02 01:53:21;;;;;;;0.00;0.00;;;13.20;99.90;;;;;;5064728;28;20848;-75
2022/09/02 01:55:50;;;;;;;0.00;0.00;;;13.20;99.90;;;;;;5063923;28;20455;-76
2022/09/02 01:58:18;;;;;;;0.00;0.00;;;13.20;99.90;;;;;;5059574;28;20474;-75
2022/09/02 02:00:46;;;;;;;0.00;0.00;;;13.20;99.90;;;;;;5059671;28;20453;-76
2022/09/02 02:03:14;;;;;;;0.00;0.00;;;13.20;99.90;;;;;;5062640;28;20451;-76
2022/09/02 02:05:43;;;;;;;0.00;0.00;;;13.20;99.90;;;;;;5069621;28;20460;-74
2022/09/02 02:08:11;;;;;;;0.00;0.00;;;13.20;99.90;;;;;;5059040;28;20948;-73
2022/09/02 02:10:42;;;;;;;0.00;0.00;;;13.20;99.90;;;;;;5058303;28;20459;-74
2022/09/02 02:13:11;;;;;;;0.00;0.00;;;13.10;99.90;;;;;;5075199;28;21015;-74
2022/09/02 02:21:02;;;;;;;0.00;0.00;;;13.00;99.90;;;;;;5009489;23;20488;-90
2022/09/02 02:23:31;;;;;;;0.00;0.00;;;12.90;99.90;;;;;;4979273;28;20456;-90
2022/09/02 02:26:00;;;;;;;0.00;0.00;;;12.90;99.90;;;;;;4978750;28;20460;-91
2022/09/02 02:28:29;;;;;;;0.00;0.00;;;12.80;99.90;;;;;;4977884;28;20507;-91
2022/09/02 02:30:58;;;;;;;0.00;0.00;;;12.90;99.90;;;;;;4978873;28;20664;-91
2022/09/02 02:33:27;;;;;;;0.00;0.00;;;12.80;99.90;;;;;;4982064;28;20423;-91
2022/09/02 02:36:04;;;;;;;0.00;0.00;;;12.80;99.90;;;;;;4984066;28;20416;-90
2022/09/02 02:38:33;;;;;;;0.00;0.00;;;12.80;99.90;;;;;;4984595;28;20507;-91
2022/09/02 02:41:05;;;;;;;0.00;0.00;;;12.70;99.90;;;;;;4983309;28;20563;-90
2022/09/02 02:43:34;;;;;;;0.00;0.00;;;12.70;99.90;;;;;;4983501;28;20494;-89
2022/09/02 02:46:02;;;;;;;0.00;0.00;;;12.70;99.90;;;;;;4983398;28;20474;-91
2022/09/02 02:48:30;;;;;;;0.00;0.00;;;12.70;99.90;;;;;;4984097;28;20483;-89
2022/09/02 02:50:59;;;;;;;0.00;0.00;;;12.70;99.90;;;;;;4981267;28;20541;-91
2022/09/02 02:53:29;;;;;;;0.00;0.00;;;12.60;99.90;;;;;;4978507;28;20479;-90
2022/09/02 02:55:58;;;;;;;0.00;0.00;;;12.60;99.90;;;;;;4984052;28;20515;-90
2022/09/02 02:58:28;;;;;;;0.00;0.00;;;12.60;99.90;;;;;;4983849;28;20501;-90
2022/09/02 03:00:59;;;;;;;0.00;0.00;;;12.60;99.90;;;;;;4982919;28;21183;-91
2022/09/02 03:03:28;;;;;;;0.00;0.00;;;12.60;99.90;;;;;;4984123;28;20447;-91
2022/09/02 03:05:58;;;;;;;0.00;0.00;;;12.60;99.90;;;;;;4988043;28;20440;-89
2022/09/02 03:08:26;;;;;;;0.00;0.00;;;12.60;99.90;;;;;;4993382;28;20944;-90
2022/09/02 03:10:56;;;;;;;0.00;0.00;;;12.60;99.90;;;;;;4983883;28;21033;-90
2022/09/02 03:13:26;;;;;;;0.00;0.00;;;12.60;99.90;;;;;;4982748;28;21173;-91
2022/09/02 03:15:59;;;;;;;0.00;0.00;;;12.60;99.90;;;;;;4982912;28;20444;-90
2022/09/02 03:18:27;;;;;;;0.00;0.00;;;12.60;99.90;;;;;;4983194;28;20477;-89
2022/09/02 03:20:55;;;;;;;0.00;0.00;;;12.50;99.90;;;;;;4982005;28;20476;-91
2022/09/02 03:23:23;;;;;;;0.00;0.00;;;12.50;99.90;;;;;;4982154;28;20515;-91
2022/09/02 03:25:51;;;;;;;0.00;0.00;;;12.50;99.90;;;;;;4980969;28;20515;-89
2022/09/02 03:28:19;;;;;;;0.00;0.00;;;12.40;99.90;;;;;;4981103;28;20462;-89
2022/09/02 03:30:48;;;;;;;0.00;0.00;;;12.40;99.90;;;;;;4981853;28;20480;-90
2022/09/02 03:33:17;;;;;;;0.00;0.00;;;12.40;99.90;;;;;;4982260;28;20470;-90
2022/09/02 03:35:45;;;;;;;0.00;0.00;;;12.40;99.90;;;;;;4983113;28;20448;-89
2022/09/02 03:38:14;;;;;;;0.00;0.00;;;12.40;99.90;;;;;;4984978;28;21124;-91
2022/09/02 03:40:42;;;;;;;0.00;0.00;;;12.50;99.90;;;;;;4985365;28;20621;-89
2022/09/02 03:43:10;;;;;;;0.00;0.00;;;12.40;99.90;;;;;;4984662;28;20986;-92
2022/09/02 03:45:40;;;;;;;0.00;0.00;;;12.40;99.90;;;;;;4983822;28;20447;-90
2022/09/02 03:48:12;;;;;;;0.00;0.00;;;12.50;99.90;;;;;;4983705;28;20408;-89
2022/09/02 03:50:41;;;;;;;0.00;0.00;;;12.50;99.90;;;;;;4983473;28;20547;-90
2022/09/02 03:53:10;;;;;;;0.00;0.00;;;12.50;99.90;;;;;;4983794;28;20976;-90
2022/09/02 03:55:47;;;;;;;0.00;0.00;;;12.40;99.90;;;;;;4983876;28;20602;-90
2022/09/02 03:58:18;;;;;;;0.00;0.00;;;12.40;99.90;;;;;;4983557;28;20491;-89
2022/09/02 04:00:51;;;;;;;0.00;0.00;;;12.50;99.90;;;;;;4982807;28;20997;-91
2022/09/02 04:03:23;;;;;;;0.00;0.00;;;12.50;99.90;;;;;;4982203;28;20451;-92
2022/09/02 04:05:52;;;;;;;0.00;0.00;;;12.50;99.90;;;;;;4982247;28;20441;-90
2022/09/02 04:08:20;;;;;;;0.00;0.00;;;12.40;99.90;;;;;;4984508;28;20432;-90
2022/09/02 04:10:48;;;;;;;0.00;0.00;;;12.40;99.90;;;;;;4992644;28;20456;-90
2022/09/02 04:13:17;;;;;;;0.00;0.00;;;12.40;99.90;;;;;;4981831;28;20931;-87
2022/09/02 04:15:47;;;;;;;0.00;0.00;;;12.30;99.90;;;;;;4980996;28;20463;-90
2022/09/02 04:18:17;;;;;;;0.00;0.00;;;12.40;99.90;;;;;;4979778;28;20480;-90
2022/09/02 04:20:47;;;;;;;0.00;0.00;;;12.30;99.90;;;;;;4979718;28;20483;-90
2022/09/02 04:23:15;;;;;;;0.00;0.00;;;12.30;99.90;;;;;;4977769;28;20455;-90
2022/09/02 04:25:44;;;;;;;0.00;0.00;;;12.40;99.90;;;;;;4980520;28;20460;-90
2022/09/02 04:28:12;;;;;;;0.00;0.00;;;12.40;99.90;;;;;;4980720;28;20451;-91
2022/09/02 04:30:41;;;;;;;0.00;0.00;;;12.40;99.90;;;;;;4979881;28;20483;-90
2022/09/02 04:33:10;;;;;;;0.00;0.00;;;12.40;99.90;;;;;;4976593;28;20455;-92
2022/09/02 04:35:51;;;;;;;0.00;0.00;;;12.40;99.90;;;;;;4977824;28;20452;-90
2022/09/02 04:38:19;;;;;;;0.00;0.00;;;12.40;99.90;;;;;;4975196;28;20692;-90
2022/09/02 04:40:47;;;;;;;0.00;0.00;;;12.40;99.90;;;;;;4970874;28;20881;-88
2022/09/02 04:43:16;;;;;;;0.00;0.00;;;12.50;99.90;;;;;;4972672;28;20436;-88
2022/09/02 04:45:47;;;;;;;0.00;0.00;;;12.50;99.90;;;;;;4971509;28;20459;-86
2022/09/02 04:48:15;;;;;;;0.00;0.00;;;12.50;99.90;;;;;;4970170;28;20455;-87
2022/09/02 04:50:44;;;;;;;0.00;0.00;;;12.50;99.90;;;;;;4971208;28;20547;-87
2022/09/02 04:53:13;;;;;;;0.00;0.00;;;12.50;99.90;;;;;;4970163;28;20441;-88
2022/09/02 04:55:42;;;;;;;0.00;0.00;;;12.50;99.90;;;;;;4972651;28;20757;-87
2022/09/02 04:58:11;;;;;;;0.00;0.00;;;12.50;99.90;;;;;;4973236;28;20991;-91
2022/09/02 05:00:41;;;;;;;0.00;0.00;;;12.40;99.90;;;;;;4977454;28;20515;-88
2022/09/02 05:03:12;;;;;;;0.00;0.00;;;12.40;99.90;;;;;;4976365;28;20468;-86
2022/09/02 05:05:43;;;;;;;0.00;0.00;;;12.40;99.90;;;;;;4979826;28;20456;-88
2022/09/02 05:08:30;;;;;;;0.00;0.00;;;12.40;99.90;;;;;;4984165;28;20985;-91
2022/09/02 05:11:00;;;;;;;0.00;0.00;;;12.50;99.90;;;;;;4988838;28;20729;-90
2022/09/02 05:13:33;;;;;;;0.00;0.00;;;12.50;99.90;;;;;;4986615;28;20866;-90
2022/09/02 05:16:05;;;;;;;0.00;0.00;;;12.50;99.90;;;;;;4978324;28;20862;-89
2022/09/02 05:18:33;;;;;;;0.00;0.00;;;12.50;99.90;;;;;;4974056;28;20561;-90
2022/09/02 05:21:05;;;;;;;0.00;0.00;;;12.50;99.90;;;;;;4976117;28;20915;-88
2022/09/02 05:23:47;;;;;;;0.00;0.00;;;12.60;99.90;;;;;;4976217;28;20532;-90
2022/09/02 05:26:21;;;;;;;0.00;0.00;;;12.60;99.90;;;;;;4981176;28;20517;-88
2022/09/02 05:28:50;;;;;;;0.00;0.00;;;12.60;99.90;;;;;;4985256;28;20506;-88
2022/09/02 05:31:21;;;;;;;0.00;0.00;;;12.70;99.90;;;;;;4986603;28;20463;-89
2022/09/02 05:33:50;;;;;;;0.00;0.00;;;12.70;99.90;;;;;;4988143;28;20444;-88
2022/09/02 05:36:21;;;;;;;0.00;0.00;;;12.70;99.90;;;;;;4988123;28;20452;-88
2022/09/02 05:38:51;;;;;;;0.00;0.00;;;12.70;99.90;;;;;;4993350;28;20552;-88
2022/09/02 05:41:22;;;;;;;0.00;0.00;;;12.80;99.90;;;;;;4992563;28;20460;-87
2022/09/02 05:43:51;;;;;;;0.00;0.00;;;12.80;99.90;;;;;;4991521;28;20436;-88
2022/09/02 05:46:22;;;;;;;0.00;0.00;;;12.80;99.90;;;;;;4989147;28;20629;-86
2022/09/02 05:49:07;;;;;;;0.00;0.00;;;12.90;99.90;;;;;;4992983;28;20428;-87
2022/09/02 05:51:40;;;;;;;0.00;0.00;;;13.00;99.90;;;;;;4991367;28;20701;-88
2022/09/02 05:54:13;;;;;;;0.00;0.00;;;13.00;99.90;;;;;;4989902;28;20423;-88
2022/09/02 05:56:44;;;;;;;0.00;0.00;;;13.00;99.90;;;;;;4987942;28;20444;-87
2022/09/02 05:59:12;;;;;;;0.00;0.00;;;13.10;99.90;;;;;;4983104;28;20503;-88
2022/09/02 06:01:44;;;;;;;0.00;0.00;;;13.10;99.90;;;;;;4975310;28;20486;-86
2022/09/02 06:04:16;;;;;;;0.00;0.00;;;13.20;99.90;;;;;;4971740;28;20484;-88
2022/09/02 06:06:49;;;;;;;0.00;0.00;;;13.30;99.90;;;;;;4976483;28;21076;-86
2022/09/02 06:09:21;;;;;;;0.00;0.00;;;13.40;99.90;;;;;;4979912;28;20475;-88
2022/09/02 06:11:50;;;;;;;0.00;0.00;;;13.50;99.90;;;;;;4977367;28;20471;-88
2022/09/02 06:14:21;;;;;;;0.00;0.00;;;13.60;99.90;;;;;;4970640;28;20516;-88
2022/09/02 06:17:05;;;;;;;0.00;0.00;;;13.70;99.90;;;;;;4960328;28;20489;-88
2022/09/02 06:19:35;;;;;;;0.00;0.00;;;13.90;99.90;;;;;;4959007;29;20480;-90
2022/09/02 06:22:05;;;;;;;0.00;0.00;;;14.00;99.90;;;;;;4964649;28;20484;-90
2022/09/02 06:24:34;;;;;;;0.00;0.00;;;14.00;99.90;;;;;;4976178;28;20460;-90
2022/09/02 06:27:03;;;;;;;0.00;0.00;;;14.20;99.90;;;;;;4975737;28;20482;-88
2022/09/02 06:29:33;;;;;;;0.00;0.00;;;14.20;99.90;;;;;;4966503;28;20519;-88
2022/09/02 06:32:01;;;;;;;0.00;0.00;;;14.40;99.90;;;;;;4963766;28;20568;-89
2022/09/02 06:34:29;;;;;;;0.00;0.00;;;14.50;99.90;;;;;;4967196;28;20493;-89
2022/09/02 06:36:57;;;;;;;0.00;0.00;;;14.60;99.90;;;;;;4967601;28;20460;-89
2022/09/02 06:39:26;;;;;;;0.00;0.00;;;14.70;99.90;;;;;;4967999;28;20540;-89
2022/09/02 06:41:55;;;;;;;0.00;0.00;;;14.80;99.90;;;;;;4970229;28;20484;-88
2022/09/02 06:44:28;;;;;;;0.00;0.00;;;14.90;99.90;;;;;;4971255;28;20437;-88
2022/09/02 06:50:18;;;;;;;0.00;0.00;;;15.10;99.90;;;;;;4970673;28;20463;-88
2022/09/02 06:52:46;;;;;;;0.00;0.00;;;15.20;99.90;;;;;;4971135;28;20445;-90
2022/09/02 06:56:02;;;;;;;0.00;0.00;;;15.30;99.90;;;;;;4970595;28;20444;-89
2022/09/02 06:58:49;;;;;;;0.00;0.00;;;15.30;99.90;;;;;;4891275;29;20451;-87
2022/09/02 07:01:19;;;;;;;0.00;0.00;;;15.40;99.90;;;;;;4970638;28;20543;-87
2022/09/02 07:06:37;;;;;;;0.00;0.00;;;15.50;99.90;;;;;;4969835;28;20473;-86
2022/09/02 07:09:06;;;;;;;0.00;0.00;;;15.60;99.90;;;;;;4969708;28;20456;-88
2022/09/02 07:11:39;;;;;;;0.00;0.00;;;15.60;99.90;;;;;;4963825;28;20484;-88
2022/09/02 07:14:09;;;;;;;0.00;0.00;;;15.70;99.90;;;;;;4958175;29;20908;-90
2022/09/02 07:16:45;;;;;;;0.00;0.00;;;15.80;99.90;;;;;;4963074;28;20461;-89
2022/09/02 07:19:17;;;;;;;0.00;0.00;;;15.90;99.90;;;;;;4963012;29;20472;-88
2022/09/02 07:21:48;;;;;;;0.00;0.00;;;16.00;99.90;;;;;;4958151;28;20495;-88
2022/09/02 07:24:32;;;;;;;0.00;0.00;;;16.10;99.90;;;;;;4958099;29;20649;-86
2022/09/02 07:27:01;;;;;;;0.00;0.00;;;16.10;99.90;;;;;;4957534;29;20756;-88
2022/09/02 07:29:33;;;;;;;0.00;0.00;;;16.20;99.90;;;;;;4958096;28;20540;-87
2022/09/02 07:32:12;;;;;;;0.00;0.00;;;16.30;99.90;;;;;;4953770;29;20575;-86
2022/09/02 07:34:41;;;;;;;0.00;0.00;;;16.40;99.90;;;;;;4952855;28;20715;-87
2022/09/02 07:37:10;;;;;;;0.00;0.00;;;16.50;99.90;;;;;;4951027;28;20475;-87
2022/09/02 07:39:38;;;;;;;0.00;0.00;;;16.60;99.90;;;;;;4949434;28;20484;-88
2022/09/02 07:42:14;;;;;;;0.00;0.00;;;16.80;99.90;;;;;;4952179;29;20625;-87
2022/09/02 07:44:46;;;;;;;0.00;0.00;;;16.90;99.90;;;;;;4955562;29;20540;-87
2022/09/02 07:47:14;;;;;;;0.00;0.00;;;16.90;99.90;;;;;;4955865;29;20444;-87
2022/09/02 07:49:42;;;;;;;0.00;0.00;;;17.00;99.90;;;;;;4953029;28;20564;-87
2022/09/02 07:52:33;;;;;;;0.00;0.00;;;17.10;99.90;;;;;;4954496;28;20441;-87
2022/09/02 07:55:07;;;;;;;0.00;0.00;;;17.30;99.90;;;;;;4954391;29;20462;-85
2022/09/02 07:57:41;;;;;;;0.00;0.00;;;17.30;99.90;;;;;;4954385;29;20519;-87
2022/09/02 08:00:15;;;;;;;0.00;0.00;;;17.30;99.90;;;;;;4954342;28;20484;-87
2022/09/02 08:02:43;;;;;;;0.00;0.00;;;17.30;99.90;;;;;;4956374;29;20457;-86
2022/09/02 08:05:12;;;;;;;0.00;0.00;;;17.50;99.90;;;;;;4954855;28;20525;-87
2022/09/02 08:07:41;;;;;;;0.00;0.00;;;17.60;99.90;;;;;;4955585;28;20457;-87
2022/09/02 08:10:11;;;;;;;0.00;0.00;;;17.70;99.90;;;;;;4955803;28;20505;-86
2022/09/02 08:12:40;;;;;;;0.00;0.00;;;17.80;99.90;;;;;;4955050;29;20489;-88
2022/09/02 08:15:18;;;;;;;0.00;0.00;;;17.90;99.90;;;;;;4954226;28;20473;-87
2022/09/02 08:17:49;;;;;;;0.00;0.00;;;18.00;99.90;;;;;;4956194;29;20634;-86
2022/09/02 08:20:18;;;;;;;0.00;0.00;;;18.10;99.90;;;;;;4958271;28;20474;-87
2022/09/02 08:22:46;;;;;;;0.00;0.00;;;18.10;99.90;;;;;;4956712;28;20874;-87
2022/09/02 08:25:28;;;;;;;0.00;0.00;;;18.20;99.90;;;;;;4959420;28;20454;-87
2022/09/02 08:27:59;;;;;;;0.00;0.00;;;18.20;99.90;;;;;;4958853;28;20831;-88
2022/09/02 08:30:30;;;;;;;0.00;0.00;;;18.30;99.90;;;;;;4952594;29;20470;-87
2022/09/02 08:32:58;;;;;;;0.00;0.00;;;18.40;99.90;;;;;;4950142;29;20862;-87
2022/09/02 08:35:26;;;;;;;0.00;0.00;;;18.50;99.90;;;;;;4952139;28;20557;-88
2022/09/02 08:37:54;;;;;;;0.00;0.00;;;18.60;99.90;;;;;;4950042;28;20482;-87
2022/09/02 08:40:24;;;;;;;0.00;0.00;;;18.60;99.90;;;;;;4950974;28;20520;-87
2022/09/02 08:42:54;;;;;;;0.00;0.00;;;18.80;99.90;;;;;;4949702;28;20565;-88
2022/09/02 08:45:28;;;;;;;0.00;0.00;;;18.80;99.90;;;;;;4950278;28;20791;-87
2022/09/02 08:48:07;;;;;;;0.00;0.00;;;18.90;99.90;;;;;;4950356;29;20462;-86
2022/09/02 08:50:37;;;;;;;0.00;0.00;;;18.90;99.90;;;;;;4949127;29;20972;-87
2022/09/02 08:53:14;;;;;;;0.00;0.00;;;19.00;99.90;;;;;;4948809;29;20431;-87
2022/09/02 08:55:50;;;;;;;0.00;0.00;;;19.10;99.90;;;;;;4950252;29;20421;-86
2022/09/02 08:58:21;;;;;;;0.00;0.00;;;19.20;99.90;;;;;;4949485;29;20480;-87
2022/09/02 09:00:58;;;;;;;0.00;0.00;;;19.20;99.90;;;;;;4949703;29;21039;-87
2022/09/02 09:03:42;;;;;;;0.00;0.00;;;19.20;99.90;;;;;;4948796;29;20456;-87
2022/09/02 09:06:18;;;;;;;0.00;0.00;;;19.30;99.90;;;;;;4947865;29;20452;-86
2022/09/02 09:08:58;;;;;;;0.00;0.00;;;19.30;99.90;;;;;;4947812;29;20658;-86
2022/09/02 09:11:34;;;;;;;0.00;0.00;;;19.40;99.90;;;;;;4951291;29;20477;-86
2022/09/02 09:14:21;;;;;;;0.00;0.00;;;19.40;99.90;;;;;;4947996;29;20486;-86
2022/09/02 09:16:56;;;;;;;0.00;0.00;;;19.50;99.90;;;;;;4948831;29;20508;-86
2022/09/02 09:19:35;;;;;;;0.00;0.00;;;19.60;99.90;;;;;;4951546;29;20878;-87
2022/09/02 09:22:04;;;;;;;0.00;0.00;;;19.50;99.90;;;;;;4967847;28;20480;-86
2022/09/02 09:24:39;;;;;;;0.00;0.00;;;19.60;99.90;;;;;;4954586;28;20437;-85
2022/09/02 09:27:14;;;;;;;0.00;0.00;;;19.70;99.90;;;;;;4955887;29;20462;-89
2022/09/02 09:29:43;;;;;;;0.00;0.00;;;19.80;99.90;;;;;;4955532;29;20467;-86
2022/09/02 09:32:21;;;;;;;0.00;0.00;;;19.80;99.90;;;;;;4953969;28;20500;-86
2022/09/02 09:35:07;;;;;;;0.00;0.00;;;19.80;99.90;;;;;;4967069;28;20452;-86
2022/09/02 09:37:38;;;;;;;0.00;0.00;;;19.90;99.90;;;;;;4964668;29;20451;-90
2022/09/02 09:40:29;;;;;;;0.00;0.00;;;20.00;99.90;;;;;;4965539;28;20475;-89
2022/09/02 09:43:12;;;;;;;0.00;0.00;;;20.10;99.90;;;;;;4969680;28;20527;-88
2022/09/02 09:45:43;;;;;;;0.00;0.00;;;20.10;99.90;;;;;;4965984;28;20437;-88
2022/09/02 09:48:26;;;;;;;0.00;0.00;;;20.10;99.90;;;;;;4965002;28;20452;-93
2022/09/02 09:51:15;;;;;;;0.00;0.00;;;20.20;99.90;;;;;;4981458;28;20499;-89
2022/09/02 09:53:47;;;;;;;0.00;0.00;;;20.20;99.90;;;;;;4990368;28;20448;-90
2022/09/02 09:56:35;;;;;;;0.00;0.00;;;20.20;99.90;;;;;;4972459;28;20496;-90
2022/09/02 09:59:08;;;;;;;0.00;0.00;;;20.30;99.90;;;;;;4972011;28;20515;-90
2022/09/02 10:01:39;;;;;;;0.00;0.00;;;20.40;99.90;;;;;;4968586;28;20479;-90
2022/09/02 10:04:19;;;;;;;0.00;0.00;;;20.50;99.90;;;;;;4965535;28;20464;-90
2022/09/02 10:07:12;;;;;;;0.00;0.00;;;20.60;99.90;;;;;;4971818;28;20590;-89
2022/09/02 10:09:40;;;;;;;0.00;0.00;;;20.60;99.90;;;;;;4969090;28;20789;-91
2022/09/02 10:12:12;;;;;;;0.00;0.00;;;20.60;99.90;;;;;;4967599;28;20730;-93
2022/09/02 10:14:43;;;;;;;0.00;0.00;;;20.60;99.90;;;;;;4961670;28;20501;-91
2022/09/02 10:17:39;;;;;;;0.00;0.00;;;20.70;99.90;;;;;;4959877;28;20456;-90
2022/09/02 10:20:14;;;;;;;0.00;0.00;;;20.70;99.90;;;;;;4959060;29;20511;-89
2022/09/02 10:23:10;;;;;;;0.00;0.00;;;20.80;99.90;;;;;;4964030;28;20532;-90
2022/09/02 10:25:52;;;;;;;0.00;0.00;;;20.90;99.90;;;;;;4965212;28;20703;-91
2022/09/02 10:28:39;;;;;;;0.00;0.00;;;21.00;99.90;;;;;;4957211;29;20473;-90
2022/09/02 10:31:14;;;;;;;0.00;0.00;;;21.00;99.90;;;;;;4956537;29;20480;-88
2022/09/02 10:33:54;;;;;;;0.00;0.00;;;21.10;99.90;;;;;;4957681;29;20448;-91
2022/09/02 10:36:31;;;;;;;0.00;0.00;;;21.20;99.90;;;;;;4956999;29;20591;-91
2022/09/02 10:39:28;;;;;;;0.00;0.00;;;21.20;99.90;;;;;;4956773;29;20460;-91
2022/09/02 10:42:06;;;;;;;0.00;0.00;;;21.20;99.90;;;;;;4957621;28;20514;-87
2022/09/02 10:44:46;;;;;;;0.00;0.00;;;21.20;99.90;;;;;;4958683;29;20537;-90
2022/09/02 10:47:21;;;;;;;0.00;0.00;;;21.30;99.90;;;;;;4956361;29;20448;-91
2022/09/02 10:50:10;;;;;;;0.00;0.00;;;21.40;99.90;;;;;;4956155;29;20535;-90
2022/09/02 10:53:00;;;;;;;0.00;0.00;;;21.40;99.90;;;;;;4958621;28;20453;-90
2022/09/02 10:55:40;;;;;;;0.00;0.00;;;21.40;99.90;;;;;;4962187;29;20548;-89
2022/09/02 10:58:14;;;;;;;0.00;0.00;;;21.30;99.90;;;;;;4961986;29;21182;-89
2022/09/02 11:00:50;;;;;;;0.00;0.00;;;21.20;99.90;;;;;;4959574;29;20473;-90
2022/09/02 11:03:23;;;;;;;0.00;0.00;;;21.30;99.90;;;;;;4961429;29;20584;-90
2022/09/02 11:05:55;;;;;;;0.00;0.00;;;21.40;99.90;;;;;;4962007;29;20461;-90
2022/09/02 11:08:33;;;;;;;0.00;0.00;;;21.60;99.90;;;;;;4960264;29;20473;-90
2022/09/02 11:11:10;;;;;;;0.00;0.00;;;21.80;99.90;;;;;;4959864;29;20458;-91
2022/09/02 11:13:47;;;;;;;0.00;0.00;;;21.80;99.90;;;;;;4960473;29;20509;-90
2022/09/02 11:16:23;;;;;;;0.00;0.00;;;21.90;99.90;;;;;;4960429;29;20448;-88
2022/09/02 11:19:00;;;;;;;0.00;0.00;;;22.00;99.90;;;;;;4961360;29;20488;-90
2022/09/02 11:21:39;;;;;;;0.00;0.00;;;22.10;99.90;;;;;;4962814;28;20493;-90
2022/09/02 11:24:12;;;;;;;0.00;0.00;;;22.20;99.90;;;;;;4970159;28;20475;-90
2022/09/02 11:26:46;;;;;;;0.00;0.00;;;22.30;99.90;;;;;;4975820;28;20431;-90
2022/09/02 11:29:19;;;;;;;0.00;0.00;;;22.20;99.90;;;;;;4967714;29;20445;-91
2022/09/02 11:31:51;;;;;;;0.00;0.00;;;22.20;99.90;;;;;;4968992;29;20483;-90
2022/09/02 11:34:34;;;;;;;0.00;0.00;;;22.20;99.90;;;;;;4967516;29;20517;-90
2022/09/02 11:37:04;;;;;;;0.00;0.00;;;22.20;99.90;;;;;;4967781;29;20498;-91
2022/09/02 11:39:37;;;;;;;0.00;0.00;;;22.20;99.90;;;;;;4968631;28;20474;-90
2022/09/02 11:42:40;;;;;;;0.00;0.00;;;22.20;99.90;;;;;;4967279;29;21008;-91
2022/09/02 11:45:38;;;;;;;0.00;0.00;;;22.30;99.90;;;;;;4966249;29;20448;-90
2022/09/02 11:48:48;;;;;;;0.00;0.00;;;22.20;99.90;;;;;;4963708;28;20459;-90
2022/09/02 11:51:42;;;;;;;0.00;0.00;;;22.20;99.90;;;;;;4962970;29;20536;-88
2022/09/02 11:54:15;;;;;;;0.00;0.00;;;22.30;99.90;;;;;;4959160;29;20465;-91
2022/09/02 11:56:47;;;;;;;0.00;0.00;;;22.40;99.90;;;;;;4958068;29;20525;-92
2022/09/02 11:59:23;;;;;;;0.00;0.00;;;22.50;99.90;;;;;;4958388;29;20502;-89
2022/09/02 12:01:59;;;;;;;0.00;0.00;;;22.80;99.90;;;;;;4957395;29;20487;-91
2022/09/02 12:04:30;;;;;;;0.00;0.00;;;22.80;99.90;;;;;;4956322;28;20512;-90
2022/09/02 12:07:25;;;;;;;0.00;0.00;;;22.90;99.90;;;;;;4956978;29;20439;-90
2022/09/02 12:10:09;;;;;;;0.00;0.00;;;23.00;99.90;;;;;;4956845;29;20500;-90
2022/09/02 12:13:33;;;;;;;0.00;0.00;;;23.00;99.90;;;;;;4957568;29;20446;-92
2022/09/02 12:16:39;;;;;;;0.00;0.00;;;22.80;99.90;;;;;;4950497;28;20481;-92
2022/09/02 12:19:38;;;;;;;0.00;0.00;;;22.60;99.90;;;;;;4950939;29;20526;-89
2022/09/02 12:22:38;;;;;;;0.00;0.00;;;22.50;99.90;;;;;;4954829;28;20576;-90
2022/09/02 12:25:36;;;;;;;0.00;0.00;;;22.60;99.90;;;;;;4963592;29;20454;-91
2022/09/02 12:28:29;;;;;;;0.00;0.00;;;22.60;99.90;;;;;;4977630;28;20449;-91
2022/09/02 12:31:17;;;;;;;0.00;0.00;;;22.50;99.90;;;;;;4994609;28;20473;-91
2022/09/02 12:33:51;;;;;;;0.00;0.00;;;22.50;99.90;;;;;;4997092;28;20982;-92
2022/09/02 12:36:50;;;;;;;0.00;0.00;;;22.50;99.90;;;;;;4999472;28;21036;-91
2022/09/02 12:39:57;;;;;;;0.00;0.00;;;22.70;99.90;;;;;;4994514;28;20462;-91
2022/09/02 12:42:36;;;;;;;0.00;0.00;;;22.80;99.90;;;;;;4994782;28;20560;-91
2022/09/02 12:45:13;;;;;;;0.00;0.00;;;22.80;99.90;;;;;;4994811;28;20456;-92
2022/09/02 12:48:00;;;;;;;0.00;0.00;;;22.80;99.90;;;;;;4995280;28;20526;-90
2022/09/02 12:50:34;;;;;;;0.00;0.00;;;22.90;99.90;;;;;;4998742;28;20595;-92
2022/09/02 12:53:35;;;;;;;0.00;0.00;;;22.80;99.90;;;;;;4994249;28;20458;-91
2022/09/02 12:56:34;;;;;;;0.00;0.00;;;22.80;99.90;;;;;;4993192;28;20455;-90
2022/09/02 12:59:29;;;;;;;0.00;0.00;;;22.70;99.90;;;;;;4993465;28;20457;-90
2022/09/02 13:02:46;;;;;;;0.00;0.00;;;22.60;99.70;;;;;;4993517;28;20498;-91
2022/09/02 13:05:27;;;;;;;0.00;0.00;;;22.60;99.80;;;;;;4959810;28;20472;-90
2022/09/02 13:08:23;;;;;;;0.00;0.00;;;22.70;99.90;;;;;;4990120;28;20638;-91
2022/09/02 13:11:20;;;;;;;0.00;0.00;;;22.70;99.90;;;;;;4977025;28;20732;-92
2022/09/02 13:14:27;;;;;;;0.00;0.00;;;22.60;99.90;;;;;;4989869;28;20440;-91
2022/09/02 13:17:14;;;;;;;0.00;0.00;;;22.60;99.60;;;;;;4985448;28;20527;-90
2022/09/02 13:20:32;;;;;;;0.00;0.00;;;22.60;99.60;;;;;;4993045;28;20646;-90
2022/09/02 13:24:04;;;;;;;0.00;0.00;;;22.60;99.80;;;;;;4993536;28;20513;-90
2022/09/02 13:27:12;;;;;;;0.00;0.00;;;22.70;99.70;;;;;;4994575;28;20458;-90
2022/09/02 13:30:08;;;;;;;0.00;0.00;;;22.80;99.60;;;;;;5002219;28;20511;-90
2022/09/02 13:32:39;;;;;;;0.00;0.00;;;23.00;99.20;;;;;;4993274;28;20489;-91
2022/09/02 13:35:24;;;;;;;0.00;0.00;;;23.10;99.30;;;;;;4995069;28;20773;-90
2022/09/02 13:38:00;;;;;;;0.00;0.00;;;23.20;99.40;;;;;;4993289;28;20466;-89
2022/09/02 13:40:34;;;;;;;0.00;0.00;;;23.40;99.20;;;;;;4993185;28;20473;-92